sensor_id;sensor_type;location;lat;lon;timestamp;P1;durP1;ratioP1;P2;durP2;ratioP2
27357;SDS011;14831;50.474;7.616;2023-12-22T00:02:47;7.8;;;2.3;;
27357;SDS011;14831;50.474;7.616;2023-12-22T00:07:47;7.8;;;2.3;;
27357;SDS011;14831;50.474;7.616;2023-12-22T00:12:47;7.8;;;2.3;;
27357;SDS011;14831;50.474;7.616;2023-12-22T00:17:47;9.9;;;3.3;;
27357;SDS011;14831;50.474;7.616;2023-12-22T00:22:47;9.9;;;3.3;;
27357;SDS011;14831;50.474;7.616;2023-12-22T00:27:47;9.9;;;3.3;;
27357;SDS011;14831;50.474;7.616;2023-12-22T00:32:47;9.9;;;3.3;;
27357;SDS011;14831;50.474;7.616;2023-12-22T00:37:47;9.9;;;3.3;;
27357;SDS011;14831;50.474;7.616;2023-12-22T00:42:47;9.9;;;3.3;;
27357;SDS011;14831;50.474;7.616;2023-12-22T00:47:47;8.4;;;2.0;;
27357;SDS011;14831;50.474;7.616;2023-12-22T00:52:48;8.4;;;2.0;;
27357;SDS011;14831;50.474;7.616;2023-12-22T00:57:47;8.4;;;2.0;;
27357;SDS011;14831;50.474;7.616;2023-12-22T01:02:47;8.4;;;2.0;;
27357;SDS011;14831;50.474;7.616;2023-12-22T01:07:47;8.4;;;2.0;;
27357;SDS011;14831;50.474;7.616;2023-12-22T01:12:47;8.4;;;2.0;;
27357;SDS011;14831;50.474;7.616;2023-12-22T01:17:48;3.4;;;0.8;;
27357;SDS011;14831;50.474;7.616;2023-12-22T01:22:47;3.4;;;0.8;;
27357;SDS011;14831;50.474;7.616;2023-12-22T01:27:47;3.4;;;0.8;;
27357;SDS011;14831;50.474;7.616;2023-12-22T01:32:47;3.4;;;0.8;;
27357;SDS011;14831;50.474;7.616;2023-12-22T01:37:47;3.4;;;0.8;;
27357;SDS011;14831;50.474;7.616;2023-12-22T01:42:47;3.4;;;0.8;;
27357;SDS011;14831;50.474;7.616;2023-12-22T01:47:47;3.1;;;1.3;;
27357;SDS011;14831;50.474;7.616;2023-12-22T01:52:47;3.1;;;1.3;;
27357;SDS011;14831;50.474;7.616;2023-12-22T01:57:48;3.1;;;1.3;;
27357;SDS011;14831;50.474;7.616;2023-12-22T02:02:47;3.1;;;1.3;;
27357;SDS011;14831;50.474;7.616;2023-12-22T02:07:47;3.1;;;1.3;;
27357;SDS011;14831;50.474;7.616;2023-12-22T02:12:47;3.1;;;1.3;;
27357;SDS011;14831;50.474;7.616;2023-12-22T02:17:50;9.6;;;3.4;;
27357;SDS011;14831;50.474;7.616;2023-12-22T02:22:51;9.6;;;3.4;;
27357;SDS011;14831;50.474;7.616;2023-12-22T02:27:49;9.6;;;3.4;;
27357;SDS011;14831;50.474;7.616;2023-12-22T02:32:50;9.6;;;3.4;;
27357;SDS011;14831;50.474;7.616;2023-12-22T02:37:48;9.6;;;3.4;;
27357;SDS011;14831;50.474;7.616;2023-12-22T02:42:47;9.6;;;3.4;;
27357;SDS011;14831;50.474;7.616;2023-12-22T02:47:47;12.7;;;4.2;;
27357;SDS011;14831;50.474;7.616;2023-12-22T02:52:48;12.7;;;4.2;;
27357;SDS011;14831;50.474;7.616;2023-12-22T02:57:47;12.7;;;4.2;;
27357;SDS011;14831;50.474;7.616;2023-12-22T03:02:47;12.7;;;4.2;;
27357;SDS011;14831;50.474;7.616;2023-12-22T03:07:47;12.7;;;4.2;;
27357;SDS011;14831;50.474;7.616;2023-12-22T03:12:47;12.7;;;4.2;;
27357;SDS011;14831;50.474;7.616;2023-12-22T03:17:48;17.4;;;4.8;;
27357;SDS011;14831;50.474;7.616;2023-12-22T03:22:47;17.4;;;4.8;;
27357;SDS011;14831;50.474;7.616;2023-12-22T03:27:47;17.4;;;4.8;;
27357;SDS011;14831;50.474;7.616;2023-12-22T03:32:47;17.4;;;4.8;;
27357;SDS011;14831;50.474;7.616;2023-12-22T03:37:47;17.4;;;4.8;;
27357;SDS011;14831;50.474;7.616;2023-12-22T03:42:48;17.4;;;4.8;;
27357;SDS011;14831;50.474;7.616;2023-12-22T03:47:47;13.1;;;3.2;;
27357;SDS011;14831;50.474;7.616;2023-12-22T03:52:47;13.1;;;3.2;;
27357;SDS011;14831;50.474;7.616;2023-12-22T03:57:47;13.1;;;3.2;;
27357;SDS011;14831;50.474;7.616;2023-12-22T04:02:47;13.1;;;3.2;;
27357;SDS011;14831;50.474;7.616;2023-12-22T04:07:47;13.1;;;3.2;;
27357;SDS011;14831;50.474;7.616;2023-12-22T04:12:47;13.1;;;3.2;;
27357;SDS011;14831;50.474;7.616;2023-12-22T04:17:47;15.2;;;3.3;;
27357;SDS011;14831;50.474;7.616;2023-12-22T04:22:47;15.2;;;3.3;;
27357;SDS011;14831;50.474;7.616;2023-12-22T04:27:47;15.2;;;3.3;;
27357;SDS011;14831;50.474;7.616;2023-12-22T04:32:49;15.2;;;3.3;;
27357;SDS011;14831;50.474;7.616;2023-12-22T04:37:47;15.2;;;3.3;;
27357;SDS011;14831;50.474;7.616;2023-12-22T04:42:48;15.2;;;3.3;;
27357;SDS011;14831;50.474;7.616;2023-12-22T04:47:47;11.5;;;2.8;;
27357;SDS011;14831;50.474;7.616;2023-12-22T04:52:47;11.5;;;2.8;;
27357;SDS011;14831;50.474;7.616;2023-12-22T04:57:47;11.5;;;2.8;;
27357;SDS011;14831;50.474;7.616;2023-12-22T05:02:47;11.5;;;2.8;;
27357;SDS011;14831;50.474;7.616;2023-12-22T05:07:47;11.5;;;2.8;;
27357;SDS011;14831;50.474;7.616;2023-12-22T05:12:47;11.5;;;2.8;;
27357;SDS011;14831;50.474;7.616;2023-12-22T05:17:47;10.3;;;2.7;;
27357;SDS011;14831;50.474;7.616;2023-12-22T05:22:48;10.3;;;2.7;;
27357;SDS011;14831;50.474;7.616;2023-12-22T05:27:47;10.3;;;2.7;;
27357;SDS011;14831;50.474;7.616;2023-12-22T05:32:47;10.3;;;2.7;;
27357;SDS011;14831;50.474;7.616;2023-12-22T05:37:47;10.3;;;2.7;;
27357;SDS011;14831;50.474;7.616;2023-12-22T05:42:47;10.3;;;2.7;;
27357;SDS011;14831;50.474;7.616;2023-12-22T05:47:48;14.7;;;3.6;;
27357;SDS011;14831;50.474;7.616;2023-12-22T05:52:47;14.7;;;3.6;;
27357;SDS011;14831;50.474;7.616;2023-12-22T05:57:47;14.7;;;3.6;;
27357;SDS011;14831;50.474;7.616;2023-12-22T06:02:47;14.7;;;3.6;;
27357;SDS011;14831;50.474;7.616;2023-12-22T06:07:47;14.7;;;3.6;;
27357;SDS011;14831;50.474;7.616;2023-12-22T06:12:48;14.7;;;3.6;;
27357;SDS011;14831;50.474;7.616;2023-12-22T06:17:47;8.2;;;2.7;;
27357;SDS011;14831;50.474;7.616;2023-12-22T06:22:47;8.2;;;2.7;;
27357;SDS011;14831;50.474;7.616;2023-12-22T06:27:47;8.2;;;2.7;;
27357;SDS011;14831;50.474;7.616;2023-12-22T06:32:47;8.2;;;2.7;;
27357;SDS011;14831;50.474;7.616;2023-12-22T06:37:47;8.2;;;2.7;;
27357;SDS011;14831;50.474;7.616;2023-12-22T06:42:47;8.2;;;2.7;;
27357;SDS011;14831;50.474;7.616;2023-12-22T06:47:47;11.2;;;2.9;;
27357;SDS011;14831;50.474;7.616;2023-12-22T06:52:47;11.2;;;2.9;;
27357;SDS011;14831;50.474;7.616;2023-12-22T06:57:47;11.2;;;2.9;;
27357;SDS011;14831;50.474;7.616;2023-12-22T07:02:47;11.2;;;2.9;;
27357;SDS011;14831;50.474;7.616;2023-12-22T07:07:47;11.2;;;2.9;;
27357;SDS011;14831;50.474;7.616;2023-12-22T07:12:47;11.2;;;2.9;;
27357;SDS011;14831;50.474;7.616;2023-12-22T07:17:47;10.3;;;2.8;;
27357;SDS011;14831;50.474;7.616;2023-12-22T07:22:47;10.3;;;2.8;;
27357;SDS011;14831;50.474;7.616;2023-12-22T07:27:47;10.3;;;2.8;;
27357;SDS011;14831;50.474;7.616;2023-12-22T07:32:47;10.3;;;2.8;;
27357;SDS011;14831;50.474;7.616;2023-12-22T07:37:47;10.3;;;2.8;;
27357;SDS011;14831;50.474;7.616;2023-12-22T07:42:47;10.3;;;2.8;;
27357;SDS011;14831;50.474;7.616;2023-12-22T07:47:47;3.8;;;1.4;;
27357;SDS011;14831;50.474;7.616;2023-12-22T07:52:47;3.8;;;1.4;;
27357;SDS011;14831;50.474;7.616;2023-12-22T07:57:47;3.8;;;1.4;;
27357;SDS011;14831;50.474;7.616;2023-12-22T08:02:47;3.8;;;1.4;;
27357;SDS011;14831;50.474;7.616;2023-12-22T08:07:47;3.8;;;1.4;;
27357;SDS011;14831;50.474;7.616;2023-12-22T08:12:47;3.8;;;1.4;;
27357;SDS011;14831;50.474;7.616;2023-12-22T08:17:48;9.3;;;2.7;;
27357;SDS011;14831;50.474;7.616;2023-12-22T08:22:48;9.3;;;2.7;;
27357;SDS011;14831;50.474;7.616;2023-12-22T08:27:47;9.3;;;2.7;;
27357;SDS011;14831;50.474;7.616;2023-12-22T08:32:47;9.3;;;2.7;;
27357;SDS011;14831;50.474;7.616;2023-12-22T08:37:47;9.3;;;2.7;;
27357;SDS011;14831;50.474;7.616;2023-12-22T08:42:47;9.3;;;2.7;;
27357;SDS011;14831;50.474;7.616;2023-12-22T08:47:47;16.1;;;3.9;;
27357;SDS011;14831;50.474;7.616;2023-12-22T08:52:47;16.1;;;3.9;;
27357;SDS011;14831;50.474;7.616;2023-12-22T08:57:47;16.1;;;3.9;;
27357;SDS011;14831;50.474;7.616;2023-12-22T09:02:47;16.1;;;3.9;;
27357;SDS011;14831;50.474;7.616;2023-12-22T09:07:47;16.1;;;3.9;;
27357;SDS011;14831;50.474;7.616;2023-12-22T09:12:47;16.1;;;3.9;;
27357;SDS011;14831;50.474;7.616;2023-12-22T09:17:47;21.1;;;5.0;;
27357;SDS011;14831;50.474;7.616;2023-12-22T09:22:47;21.1;;;5.0;;
27357;SDS011;14831;50.474;7.616;2023-12-22T09:27:47;21.1;;;5.0;;
27357;SDS011;14831;50.474;7.616;2023-12-22T09:32:47;21.1;;;5.0;;
27357;SDS011;14831;50.474;7.616;2023-12-22T09:37:47;21.1;;;5.0;;
27357;SDS011;14831;50.474;7.616;2023-12-22T09:42:49;21.1;;;5.0;;
27357;SDS011;14831;50.474;7.616;2023-12-22T09:47:48;15.3;;;4.7;;
27357;SDS011;14831;50.474;7.616;2023-12-22T09:52:47;15.3;;;4.7;;
27357;SDS011;14831;50.474;7.616;2023-12-22T09:57:48;15.3;;;4.7;;
27357;SDS011;14831;50.474;7.616;2023-12-22T10:02:48;15.3;;;4.7;;
27357;SDS011;14831;50.474;7.616;2023-12-22T10:07:48;15.3;;;4.7;;
27357;SDS011;14831;50.474;7.616;2023-12-22T10:12:48;15.3;;;4.7;;
27357;SDS011;14831;50.474;7.616;2023-12-22T10:17:48;13.7;;;4.4;;
27357;SDS011;14831;50.474;7.616;2023-12-22T10:22:47;13.7;;;4.4;;
27357;SDS011;14831;50.474;7.616;2023-12-22T10:27:47;13.7;;;4.4;;
27357;SDS011;14831;50.474;7.616;2023-12-22T10:32:47;13.7;;;4.4;;
27357;SDS011;14831;50.474;7.616;2023-12-22T10:37:47;13.7;;;4.4;;
27357;SDS011;14831;50.474;7.616;2023-12-22T10:42:48;13.7;;;4.4;;
27357;SDS011;14831;50.474;7.616;2023-12-22T10:47:48;7.0;;;2.6;;
27357;SDS011;14831;50.474;7.616;2023-12-22T10:52:49;7.0;;;2.6;;
27357;SDS011;14831;50.474;7.616;2023-12-22T10:57:47;7.0;;;2.6;;
27357;SDS011;14831;50.474;7.616;2023-12-22T11:02:48;7.0;;;2.6;;
27357;SDS011;14831;50.474;7.616;2023-12-22T11:07:49;7.0;;;2.6;;
27357;SDS011;14831;50.474;7.616;2023-12-22T11:12:47;7.0;;;2.6;;
27357;SDS011;14831;50.474;7.616;2023-12-22T11:17:48;5.5;;;1.9;;
27357;SDS011;14831;50.474;7.616;2023-12-22T11:22:48;5.5;;;1.9;;
27357;SDS011;14831;50.474;7.616;2023-12-22T11:27:48;5.5;;;1.9;;
27357;SDS011;14831;50.474;7.616;2023-12-22T11:32:49;5.5;;;1.9;;
27357;SDS011;14831;50.474;7.616;2023-12-22T11:37:49;5.5;;;1.9;;
27357;SDS011;14831;50.474;7.616;2023-12-22T11:42:50;5.5;;;1.9;;
27357;SDS011;14831;50.474;7.616;2023-12-22T11:47:47;7.9;;;3.0;;
27357;SDS011;14831;50.474;7.616;2023-12-22T11:52:47;7.9;;;3.0;;
27357;SDS011;14831;50.474;7.616;2023-12-22T11:57:47;7.9;;;3.0;;
27357;SDS011;14831;50.474;7.616;2023-12-22T12:02:54;7.9;;;3.0;;
27357;SDS011;14831;50.474;7.616;2023-12-22T12:07:48;7.9;;;3.0;;
27357;SDS011;14831;50.474;7.616;2023-12-22T12:13:04;7.9;;;3.0;;
27357;SDS011;14831;50.474;7.616;2023-12-22T12:17:47;4.5;;;4.0;;
27357;SDS011;14831;50.474;7.616;2023-12-22T12:22:48;4.5;;;4.0;;
27357;SDS011;14831;50.474;7.616;2023-12-22T12:27:47;4.5;;;4.0;;
27357;SDS011;14831;50.474;7.616;2023-12-22T12:32:48;4.5;;;4.0;;
27357;SDS011;14831;50.474;7.616;2023-12-22T12:37:48;4.5;;;4.0;;
27357;SDS011;14831;50.474;7.616;2023-12-22T12:42:48;4.5;;;4.0;;
27357;SDS011;14831;50.474;7.616;2023-12-22T12:47:54;5.2;;;2.2;;
27357;SDS011;14831;50.474;7.616;2023-12-22T12:52:47;5.2;;;2.2;;
27357;SDS011;14831;50.474;7.616;2023-12-22T12:57:48;5.2;;;2.2;;
27357;SDS011;14831;50.474;7.616;2023-12-22T13:02:47;5.2;;;2.2;;
27357;SDS011;14831;50.474;7.616;2023-12-22T13:07:47;5.2;;;2.2;;
27357;SDS011;14831;50.474;7.616;2023-12-22T13:12:48;5.2;;;2.2;;
27357;SDS011;14831;50.474;7.616;2023-12-22T13:17:48;4.7;;;3.1;;
27357;SDS011;14831;50.474;7.616;2023-12-22T13:22:47;4.7;;;3.1;;
27357;SDS011;14831;50.474;7.616;2023-12-22T13:27:48;4.7;;;3.1;;
27357;SDS011;14831;50.474;7.616;2023-12-22T13:32:53;4.7;;;3.1;;
27357;SDS011;14831;50.474;7.616;2023-12-22T13:37:47;4.7;;;3.1;;
27357;SDS011;14831;50.474;7.616;2023-12-22T13:42:53;4.7;;;3.1;;
27357;SDS011;14831;50.474;7.616;2023-12-22T13:47:47;5.5;;;3.3;;
27357;SDS011;14831;50.474;7.616;2023-12-22T13:52:48;5.5;;;3.3;;
27357;SDS011;14831;50.474;7.616;2023-12-22T13:57:48;5.5;;;3.3;;
27357;SDS011;14831;50.474;7.616;2023-12-22T14:02:48;5.5;;;3.3;;
27357;SDS011;14831;50.474;7.616;2023-12-22T14:07:48;5.5;;;3.3;;
27357;SDS011;14831;50.474;7.616;2023-12-22T14:12:47;5.5;;;3.3;;
27357;SDS011;14831;50.474;7.616;2023-12-22T14:17:47;5.3;;;3.6;;
27357;SDS011;14831;50.474;7.616;2023-12-22T14:22:47;5.3;;;3.6;;
27357;SDS011;14831;50.474;7.616;2023-12-22T14:27:47;5.3;;;3.6;;
27357;SDS011;14831;50.474;7.616;2023-12-22T14:32:47;5.3;;;3.6;;
27357;SDS011;14831;50.474;7.616;2023-12-22T14:37:47;5.3;;;3.6;;
27357;SDS011;14831;50.474;7.616;2023-12-22T14:42:47;5.3;;;3.6;;
27357;SDS011;14831;50.474;7.616;2023-12-22T14:47:47;4.5;;;3.1;;
27357;SDS011;14831;50.474;7.616;2023-12-22T14:52:47;4.5;;;3.1;;
27357;SDS011;14831;50.474;7.616;2023-12-22T14:57:47;4.5;;;3.1;;
27357;SDS011;14831;50.474;7.616;2023-12-22T15:02:47;4.5;;;3.1;;
27357;SDS011;14831;50.474;7.616;2023-12-22T15:07:47;4.5;;;3.1;;
27357;SDS011;14831;50.474;7.616;2023-12-22T15:12:47;4.5;;;3.1;;
27357;SDS011;14831;50.474;7.616;2023-12-22T15:17:47;4.4;;;2.2;;
27357;SDS011;14831;50.474;7.616;2023-12-22T15:22:47;4.4;;;2.2;;
27357;SDS011;14831;50.474;7.616;2023-12-22T15:27:47;4.4;;;2.2;;
27357;SDS011;14831;50.474;7.616;2023-12-22T15:32:49;4.4;;;2.2;;
27357;SDS011;14831;50.474;7.616;2023-12-22T15:37:47;4.4;;;2.2;;
27357;SDS011;14831;50.474;7.616;2023-12-22T15:42:47;4.4;;;2.2;;
27357;SDS011;14831;50.474;7.616;2023-12-22T15:47:47;15.9;;;9.0;;
27357;SDS011;14831;50.474;7.616;2023-12-22T15:52:47;15.9;;;9.0;;
27357;SDS011;14831;50.474;7.616;2023-12-22T15:57:47;15.9;;;9.0;;
27357;SDS011;14831;50.474;7.616;2023-12-22T16:02:47;15.9;;;9.0;;
27357;SDS011;14831;50.474;7.616;2023-12-22T16:07:47;15.9;;;9.0;;
27357;SDS011;14831;50.474;7.616;2023-12-22T16:12:47;15.9;;;9.0;;
27357;SDS011;14831;50.474;7.616;2023-12-22T16:17:47;5.4;;;3.0;;
27357;SDS011;14831;50.474;7.616;2023-12-22T16:22:47;5.4;;;3.0;;
27357;SDS011;14831;50.474;7.616;2023-12-22T16:27:47;5.4;;;3.0;;
27357;SDS011;14831;50.474;7.616;2023-12-22T16:32:48;5.4;;;3.0;;
27357;SDS011;14831;50.474;7.616;2023-12-22T16:37:47;5.4;;;3.0;;
27357;SDS011;14831;50.474;7.616;2023-12-22T16:42:47;5.4;;;3.0;;
27357;SDS011;14831;50.474;7.616;2023-12-22T16:47:47;5.2;;;3.2;;
27357;SDS011;14831;50.474;7.616;2023-12-22T16:52:47;5.2;;;3.2;;
27357;SDS011;14831;50.474;7.616;2023-12-22T16:57:47;5.2;;;3.2;;
27357;SDS011;14831;50.474;7.616;2023-12-22T17:02:47;5.2;;;3.2;;
27357;SDS011;14831;50.474;7.616;2023-12-22T17:07:47;5.2;;;3.2;;
27357;SDS011;14831;50.474;7.616;2023-12-22T17:12:47;5.2;;;3.2;;
27357;SDS011;14831;50.474;7.616;2023-12-22T17:17:47;6.4;;;3.6;;
27357;SDS011;14831;50.474;7.616;2023-12-22T17:22:47;6.4;;;3.6;;
27357;SDS011;14831;50.474;7.616;2023-12-22T17:27:47;6.4;;;3.6;;
27357;SDS011;14831;50.474;7.616;2023-12-22T17:32:47;6.4;;;3.6;;
27357;SDS011;14831;50.474;7.616;2023-12-22T17:37:47;6.4;;;3.6;;
27357;SDS011;14831;50.474;7.616;2023-12-22T17:42:47;6.4;;;3.6;;
27357;SDS011;14831;50.474;7.616;2023-12-22T17:47:47;4.8;;;3.6;;
27357;SDS011;14831;50.474;7.616;2023-12-22T17:52:47;4.8;;;3.6;;
27357;SDS011;14831;50.474;7.616;2023-12-22T17:57:47;4.8;;;3.6;;
27357;SDS011;14831;50.474;7.616;2023-12-22T18:02:47;4.8;;;3.6;;
27357;SDS011;14831;50.474;7.616;2023-12-22T18:07:47;4.8;;;3.6;;
27357;SDS011;14831;50.474;7.616;2023-12-22T18:12:47;4.8;;;3.6;;
27357;SDS011;14831;50.474;7.616;2023-12-22T18:17:47;11.9;;;5.9;;
27357;SDS011;14831;50.474;7.616;2023-12-22T18:22:47;11.9;;;5.9;;
27357;SDS011;14831;50.474;7.616;2023-12-22T18:27:47;11.9;;;5.9;;
27357;SDS011;14831;50.474;7.616;2023-12-22T18:32:47;11.9;;;5.9;;
27357;SDS011;14831;50.474;7.616;2023-12-22T18:37:47;11.9;;;5.9;;
27357;SDS011;14831;50.474;7.616;2023-12-22T18:42:47;11.9;;;5.9;;
27357;SDS011;14831;50.474;7.616;2023-12-22T18:47:47;12.0;;;6.8;;
27357;SDS011;14831;50.474;7.616;2023-12-22T18:52:47;12.0;;;6.8;;
27357;SDS011;14831;50.474;7.616;2023-12-22T18:57:47;12.0;;;6.8;;
27357;SDS011;14831;50.474;7.616;2023-12-22T19:02:47;12.0;;;6.8;;
27357;SDS011;14831;50.474;7.616;2023-12-22T19:07:47;12.0;;;6.8;;
27357;SDS011;14831;50.474;7.616;2023-12-22T19:12:47;12.0;;;6.8;;
27357;SDS011;14831;50.474;7.616;2023-12-22T19:17:47;8.0;;;2.7;;
27357;SDS011;14831;50.474;7.616;2023-12-22T19:22:47;8.0;;;2.7;;
27357;SDS011;14831;50.474;7.616;2023-12-22T19:27:47;8.0;;;2.7;;
27357;SDS011;14831;50.474;7.616;2023-12-22T19:32:47;8.0;;;2.7;;
27357;SDS011;14831;50.474;7.616;2023-12-22T19:37:47;8.0;;;2.7;;
27357;SDS011;14831;50.474;7.616;2023-12-22T19:42:47;8.0;;;2.7;;
27357;SDS011;14831;50.474;7.616;2023-12-22T19:47:47;8.7;;;3.3;;
27357;SDS011;14831;50.474;7.616;2023-12-22T19:52:47;8.7;;;3.3;;
27357;SDS011;14831;50.474;7.616;2023-12-22T19:57:48;8.7;;;3.3;;
27357;SDS011;14831;50.474;7.616;2023-12-22T20:02:47;8.7;;;3.3;;
27357;SDS011;14831;50.474;7.616;2023-12-22T20:07:47;8.7;;;3.3;;
27357;SDS011;14831;50.474;7.616;2023-12-22T20:12:47;8.7;;;3.3;;
27357;SDS011;14831;50.474;7.616;2023-12-22T20:17:47;5.6;;;2.1;;
27357;SDS011;14831;50.474;7.616;2023-12-22T20:22:47;5.6;;;2.1;;
27357;SDS011;14831;50.474;7.616;2023-12-22T20:27:47;5.6;;;2.1;;
27357;SDS011;14831;50.474;7.616;2023-12-22T20:32:47;5.6;;;2.1;;
27357;SDS011;14831;50.474;7.616;2023-12-22T20:37:47;5.6;;;2.1;;
27357;SDS011;14831;50.474;7.616;2023-12-22T20:42:47;5.6;;;2.1;;
27357;SDS011;14831;50.474;7.616;2023-12-22T20:47:47;6.5;;;2.7;;
27357;SDS011;14831;50.474;7.616;2023-12-22T20:52:47;6.5;;;2.7;;
27357;SDS011;14831;50.474;7.616;2023-12-22T20:57:48;6.5;;;2.7;;
27357;SDS011;14831;50.474;7.616;2023-12-22T21:02:47;6.5;;;2.7;;
27357;SDS011;14831;50.474;7.616;2023-12-22T21:07:47;6.5;;;2.7;;
27357;SDS011;14831;50.474;7.616;2023-12-22T21:12:47;6.5;;;2.7;;
27357;SDS011;14831;50.474;7.616;2023-12-22T21:17:47;5.8;;;2.4;;
27357;SDS011;14831;50.474;7.616;2023-12-22T21:22:47;5.8;;;2.4;;
27357;SDS011;14831;50.474;7.616;2023-12-22T21:27:47;5.8;;;2.4;;
27357;SDS011;14831;50.474;7.616;2023-12-22T21:32:47;5.8;;;2.4;;
27357;SDS011;14831;50.474;7.616;2023-12-22T21:37:47;5.8;;;2.4;;
27357;SDS011;14831;50.474;7.616;2023-12-22T21:42:47;5.8;;;2.4;;
27357;SDS011;14831;50.474;7.616;2023-12-22T21:47:48;5.7;;;2.7;;
27357;SDS011;14831;50.474;7.616;2023-12-22T21:52:47;5.7;;;2.7;;
27357;SDS011;14831;50.474;7.616;2023-12-22T21:57:47;5.7;;;2.7;;
27357;SDS011;14831;50.474;7.616;2023-12-22T22:02:47;5.7;;;2.7;;
27357;SDS011;14831;50.474;7.616;2023-12-22T22:07:47;5.7;;;2.7;;
27357;SDS011;14831;50.474;7.616;2023-12-22T22:12:47;5.7;;;2.7;;
27357;SDS011;14831;50.474;7.616;2023-12-22T22:17:47;7.9;;;2.4;;
27357;SDS011;14831;50.474;7.616;2023-12-22T22:22:47;7.9;;;2.4;;
27357;SDS011;14831;50.474;7.616;2023-12-22T22:27:47;7.9;;;2.4;;
27357;SDS011;14831;50.474;7.616;2023-12-22T22:32:47;7.9;;;2.4;;
27357;SDS011;14831;50.474;7.616;2023-12-22T22:37:47;7.9;;;2.4;;
27357;SDS011;14831;50.474;7.616;2023-12-22T22:42:47;7.9;;;2.4;;
27357;SDS011;14831;50.474;7.616;2023-12-22T22:47:47;8.2;;;3.1;;
27357;SDS011;14831;50.474;7.616;2023-12-22T22:52:47;8.2;;;3.1;;
27357;SDS011;14831;50.474;7.616;2023-12-22T22:57:47;8.2;;;3.1;;
27357;SDS011;14831;50.474;7.616;2023-12-22T23:02:47;8.2;;;3.1;;
27357;SDS011;14831;50.474;7.616;2023-12-22T23:07:47;8.2;;;3.1;;
27357;SDS011;14831;50.474;7.616;2023-12-22T23:12:47;8.2;;;3.1;;
27357;SDS011;14831;50.474;7.616;2023-12-22T23:17:47;1.4;;;0.6;;
27357;SDS011;14831;50.474;7.616;2023-12-22T23:22:47;1.4;;;0.6;;
27357;SDS011;14831;50.474;7.616;2023-12-22T23:27:47;1.4;;;0.6;;
27357;SDS011;14831;50.474;7.616;2023-12-22T23:32:47;1.4;;;0.6;;
27357;SDS011;14831;50.474;7.616;2023-12-22T23:37:47;1.4;;;0.6;;
27357;SDS011;14831;50.474;7.616;2023-12-22T23:42:47;1.4;;;0.6;;
27357;SDS011;14831;50.474;7.616;2023-12-22T23:47:47;3.9;;;1.1;;
27357;SDS011;14831;50.474;7.616;2023-12-22T23:52:47;3.9;;;1.1;;
27357;SDS011;14831;50.474;7.616;2023-12-22T23:57:47;3.9;;;1.1;;
